Главная страница
METAR-TAF:

METAR-TAF

Аэропорты :

Мариехамн, Финляндия

широта: 60-07N, долгота: 019-54E, высота над уровнем моря: 6 м

Текущие метеонаблюдения

Эта сводка был подготовлена 32 минут назад, в 20:20 UTC
Ветер 1 Узел переменных направлений
Температура 3°C
Влажность 100%
Давление 1023 hPa
Видимость 10 км и более
Нет облачности ниже 1500 м, и нет кучево-дождевой облачности

METAR: EFMA 192020Z AUTO VRB01KT CAVOK 03/03 Q1023

Время: 23:52 (20:52 UTC)

Прогноз

Эта сводка был подготовлена 25 минут назад, в 20:27 UTC
Прогноз действительный с 19-го 21 UTC до 20-го 06 UTC
Ветер 3 Узел от западный-юго-западный
Видимость 10 км и более
Нет облачности ниже 1500 м, и нет кучево-дождевой облачности

TAF: EFMA 192027Z 1921/2006 25003KT CAVOK

Метеонаблюдения и прогнозы для более 4000 аэропортов (сводки METAR и TAF).

Имеющиеся станции представлены на карте желтыми и красными точками.

Чтобы увидеть название станции, наведите на нее мышь.

Затем щелкните, чтобы увидеть метеонаблюдения и метеопрогнозы.

Управление картой: чтобы увеличить масштаб, щелкните зеленые кнопки с черным крестиком; чтобы уменьшить масштаб, щелкните зеленую кнопку с тире; для просмотра соседних карт щелкайте зеленые стрелки.


METAR-TAF: